Time,TemperatureF,DewpointF,PressureIn,WindDirection,WindDirectionDegrees,WindSpeedMPH,WindSpeedGustMPH,Humidity,HourlyPrecipIn,Conditions,Clouds,dailyrainin,SoftwareType,DateUTC
2014-09-16 00:00:00,59.4,53.6,30.08,SW,233,5.0,8.0,81,0.00,,---,0.00,VWS V14.01,2014-09-16 04:00:00,
2014-09-16 00:05:00,59.4,53.6,30.08,SE,130,1.0,7.0,81,0.00,,---,0.00,VWS V14.01,2014-09-16 04:05:00,
2014-09-16 00:10:00,59.3,53.5,30.08,SE,131,2.0,7.0,81,0.00,,---,0.00,VWS V14.01,2014-09-16 04:10:00,
2014-09-16 00:15:00,59.1,53.3,30.08,SSE,163,1.0,7.0,81,0.00,,---,0.00,VWS V14.01,2014-09-16 04:15:00,
2014-09-16 00:20:00,59.0,53.5,30.08,SE,127,1.0,7.0,82,0.00,,---,0.00,VWS V14.01,2014-09-16 04:20:00,
2014-09-16 00:25:00,58.8,53.3,30.08,SSE,158,2.0,7.0,82,0.00,,---,0.00,VWS V14.01,2014-09-16 04:25:00,
2014-09-16 00:26:00,58.7,53.2,30.08,ESE,109,2.0,7.0,82,0.00,,---,0.00,VWS V14.01,2014-09-16 04:26:00,
2014-09-16 00:31:00,58.4,52.9,30.08,ESE,115,1.0,3.0,82,0.00,,---,0.00,VWS V14.01,2014-09-16 04:31:00,
2014-09-16 00:36:00,58.1,53.0,30.08,SE,135,1.0,3.0,83,0.00,,---,0.00,VWS V14.01,2014-09-16 04:36:00,
2014-09-16 00:41:00,57.6,52.5,30.08,ESE,107,3.0,3.0,83,0.00,,---,0.00,VWS V14.01,2014-09-16 04:41:00,
2014-09-16 00:46:00,57.2,52.4,30.08,ESE,112,1.0,3.0,84,0.00,,---,0.00,VWS V14.01,2014-09-16 04:46:00,
2014-09-16 00:51:00,56.9,52.1,30.08,East,90,1.0,3.0,84,0.00,,---,0.00,VWS V14.01,2014-09-16 04:51:00,
2014-09-16 00:56:00,56.5,52.0,30.08,East,101,2.0,3.0,85,0.00,,---,0.00,VWS V14.01,2014-09-16 04:56:00,
2014-09-16 01:01:00,56.3,52.2,30.08,ESE,109,2.0,4.0,86,0.00,,---,0.00,VWS V14.01,2014-09-16 05:01:00,
2014-09-16 01:06:00,56.2,52.1,30.08,East,98,2.0,4.0,86,0.00,,---,0.00,VWS V14.01,2014-09-16 05:06:00,
2014-09-16 01:11:00,56.2,52.1,30.08,ESE,117,0.0,4.0,86,0.00,,---,0.00,VWS V14.01,2014-09-16 05:11:00,
2014-09-16 01:16:00,56.2,52.1,30.08,SE,130,0.0,4.0,86,0.00,,---,0.00,VWS V14.01,2014-09-16 05:16:00,
2014-09-16 01:21:00,56.2,52.1,30.08,SSE,159,1.0,4.0,86,0.00,,---,0.00,VWS V14.01,2014-09-16 05:21:00,
2014-09-16 01:26:00,56.1,52.0,30.08,East,94,1.0,4.0,86,0.00,,---,0.00,VWS V14.01,2014-09-16 05:26:00,
2014-09-16 01:31:00,56.1,52.3,30.08,ESE,109,1.0,1.0,87,0.00,,---,0.00,VWS V14.01,2014-09-16 05:31:00,
2014-09-16 01:36:00,56.2,52.4,30.08,East,96,1.0,3.0,87,0.00,,---,0.00,VWS V14.01,2014-09-16 05:36:00,
2014-09-16 01:41:00,56.2,52.1,30.07,ESE,115,2.0,3.0,86,0.00,,---,0.00,VWS V14.01,2014-09-16 05:41:00,
2014-09-16 01:46:00,56.3,52.5,30.08,ESE,111,1.0,3.0,87,0.00,,---,0.00,VWS V14.01,2014-09-16 05:46:00,
2014-09-16 01:51:00,56.3,52.5,30.07,East,92,2.0,5.0,87,0.00,,---,0.00,VWS V14.01,2014-09-16 05:51:00,
2014-09-16 01:56:00,56.2,52.4,30.08,ESE,117,2.0,5.0,87,0.00,,---,0.00,VWS V14.01,2014-09-16 05:56:00,
2014-09-16 02:01:00,56.2,52.4,30.08,East,99,1.0,2.0,87,0.00,,---,0.00,VWS V14.01,2014-09-16 06:01:00,
2014-09-16 02:06:00,56.3,52.8,30.07,ESE,119,3.0,4.0,88,0.00,,---,0.00,VWS V14.01,2014-09-16 06:06:00,
2014-09-16 02:11:00,56.5,53.0,30.07,SE,127,2.0,4.0,88,0.00,,---,0.00,VWS V14.01,2014-09-16 06:11:00,
2014-09-16 02:16:00,56.7,53.2,30.07,ESE,115,3.0,4.0,88,0.00,,---,0.00,VWS V14.01,2014-09-16 06:16:00,
2014-09-16 02:21:00,56.9,53.1,30.07,SE,145,2.0,6.0,87,0.00,,---,0.00,VWS V14.01,2014-09-16 06:21:00,
2014-09-16 02:25:00,57.1,53.3,30.07,ESE,107,2.0,6.0,87,0.00,,---,0.00,VWS V14.01,2014-09-16 06:25:00,
2014-09-16 02:30:00,57.3,53.5,30.07,SE,128,3.0,6.0,87,0.00,,---,0.00,VWS V14.01,2014-09-16 06:30:00,
2014-09-16 02:35:00,57.3,53.5,30.07,SE,130,3.0,3.0,87,0.00,,---,0.00,VWS V14.01,2014-09-16 06:35:00,
2014-09-16 02:40:00,57.5,53.7,30.07,ESE,109,2.0,5.0,87,0.00,,---,0.00,VWS V14.01,2014-09-16 06:40:00,
2014-09-16 02:45:00,57.5,53.7,30.07,SE,130,4.0,5.0,87,0.00,,---,0.00,VWS V14.01,2014-09-16 06:45:00,
2014-09-16 02:50:00,57.6,53.8,30.07,SE,145,2.0,5.0,87,0.00,,---,0.00,VWS V14.01,2014-09-16 06:50:00,
2014-09-16 02:55:00,57.7,53.9,30.07,SE,128,3.0,5.0,87,0.00,,---,0.00,VWS V14.01,2014-09-16 06:55:00,
2014-09-16 03:00:00,57.8,54.0,30.06,SE,134,2.0,5.0,87,0.00,,---,0.00,VWS V14.01,2014-09-16 07:00:00,
2014-09-16 03:05:00,57.9,54.1,30.06,SE,135,3.0,3.0,87,0.00,,---,0.00,VWS V14.01,2014-09-16 07:05:00,
2014-09-16 03:08:00,57.9,54.1,30.06,SE,134,0.0,4.0,87,0.00,,---,0.00,VWS V14.01,2014-09-16 07:08:00,
2014-09-16 03:13:00,58.0,54.2,30.06,SE,146,2.0,4.0,87,0.00,,---,0.00,VWS V14.01,2014-09-16 07:13:00,
2014-09-16 03:18:00,58.0,54.2,30.05,SSE,155,1.0,4.0,87,0.00,,---,0.00,VWS V14.01,2014-09-16 07:18:00,
2014-09-16 03:23:00,58.1,54.3,30.05,SSE,155,4.0,4.0,87,0.00,,---,0.00,VWS V14.01,2014-09-16 07:23:00,
2014-09-16 03:28:00,58.3,54.5,30.05,SE,145,2.0,4.0,87,0.00,,---,0.00,VWS V14.01,2014-09-16 07:28:00,
2014-09-16 03:33:00,58.4,54.5,30.05,SE,130,2.0,6.0,87,0.00,,---,0.00,VWS V14.01,2014-09-16 07:33:00,
2014-09-16 03:38:00,58.6,54.4,30.05,SE,144,3.0,6.0,86,0.00,,---,0.00,VWS V14.01,2014-09-16 07:38:00,
2014-09-16 03:43:00,58.7,54.5,30.05,SSE,160,4.0,6.0,86,0.00,,---,0.00,VWS V14.01,2014-09-16 07:43:00,
2014-09-16 03:48:00,58.8,54.6,30.04,SSE,161,4.0,6.0,86,0.00,,---,0.00,VWS V14.01,2014-09-16 07:48:00,
2014-09-16 03:53:00,59.0,54.8,30.04,South,184,3.0,7.0,86,0.00,,---,0.00,VWS V14.01,2014-09-16 07:53:00,
2014-09-16 03:58:00,59.1,54.6,30.04,SSW,192,2.0,7.0,85,0.00,,---,0.00,VWS V14.01,2014-09-16 07:58:00,
2014-09-16 04:03:00,59.2,54.7,30.05,SW,232,4.0,4.0,85,0.00,,---,0.00,VWS V14.01,2014-09-16 08:03:00,
2014-09-16 04:08:00,59.2,54.7,30.04,SE,146,2.0,9.0,85,0.00,,---,0.00,VWS V14.01,2014-09-16 08:08:00,
2014-09-16 04:13:00,59.2,54.4,30.04,SE,136,3.0,9.0,84,0.00,,---,0.00,VWS V14.01,2014-09-16 08:13:00,
2014-09-16 04:17:00,59.2,54.0,30.04,South,182,7.0,9.0,83,0.00,,---,0.00,VWS V14.01,2014-09-16 08:17:00,
2014-09-16 04:22:00,59.3,54.2,30.04,East,85,0.0,9.0,83,0.00,,---,0.00,VWS V14.01,2014-09-16 08:22:00,
2014-09-16 04:27:00,59.3,53.8,30.03,SSE,148,2.0,9.0,82,0.00,,---,0.00,VWS V14.01,2014-09-16 08:27:00,
2014-09-16 04:31:00,59.3,53.8,30.03,SSE,160,3.0,7.0,82,0.00,,---,0.00,VWS V14.01,2014-09-16 08:31:00,
2014-09-16 04:36:00,59.3,54.2,30.03,East,98,2.0,7.0,83,0.00,,---,0.00,VWS V14.01,2014-09-16 08:36:00,
2014-09-16 04:41:00,59.1,53.6,30.03,SE,134,4.0,7.0,82,0.00,,---,0.00,VWS V14.01,2014-09-16 08:41:00,
2014-09-16 04:46:00,59.0,53.5,30.03,East,92,5.0,8.0,82,0.00,,---,0.00,VWS V14.01,2014-09-16 08:46:00,
2014-09-16 04:51:00,58.9,53.4,30.03,SE,132,6.0,8.0,82,0.00,,---,0.00,VWS V14.01,2014-09-16 08:51:00,
2014-09-16 04:56:00,58.9,53.8,30.03,SSE,168,5.0,8.0,83,0.00,,---,0.00,VWS V14.01,2014-09-16 08:56:00,
2014-09-16 05:01:00,58.8,53.3,30.03,SW,235,4.0,6.0,82,0.00,,---,0.00,VWS V14.01,2014-09-16 09:01:00,
2014-09-16 05:06:00,58.9,53.4,30.03,SSW,206,5.0,8.0,82,0.00,,---,0.00,VWS V14.01,2014-09-16 09:06:00,
2014-09-16 05:11:00,59.1,53.6,30.03,SE,144,4.0,8.0,82,0.00,,---,0.00,VWS V14.01,2014-09-16 09:11:00,
2014-09-16 05:16:00,59.2,53.7,30.03,SSE,167,3.0,8.0,82,0.00,,---,0.00,VWS V14.01,2014-09-16 09:16:00,
2014-09-16 05:21:00,59.3,53.8,30.03,South,171,4.0,8.0,82,0.00,,---,0.00,VWS V14.01,2014-09-16 09:21:00,
2014-09-16 05:26:00,59.4,54.2,30.03,SE,136,1.0,8.0,83,0.00,,---,0.00,VWS V14.01,2014-09-16 09:26:00,
2014-09-16 05:31:00,59.5,54.0,30.02,SSW,194,5.0,5.0,82,0.00,,---,0.00,VWS V14.01,2014-09-16 09:31:00,
2014-09-16 05:36:00,59.6,54.1,30.03,South,184,1.0,9.0,82,0.00,,---,0.00,VWS V14.01,2014-09-16 09:36:00,
2014-09-16 05:38:00,59.6,54.1,30.03,East,88,1.0,9.0,82,0.00,,---,0.00,VWS V14.01,2014-09-16 09:38:00,
2014-09-16 05:43:00,59.6,54.1,30.03,SW,217,2.0,9.0,82,0.00,,---,0.00,VWS V14.01,2014-09-16 09:43:00,
2014-09-16 05:48:00,59.7,54.2,30.03,South,178,4.0,9.0,82,0.00,,---,0.00,VWS V14.01,2014-09-16 09:48:00,
2014-09-16 05:53:00,59.7,54.2,30.03,SSE,160,2.0,9.0,82,0.00,,---,0.00,VWS V14.01,2014-09-16 09:53:00,
2014-09-16 05:58:00,59.7,54.2,30.03,SSE,163,2.0,9.0,82,0.00,,---,0.00,VWS V14.01,2014-09-16 09:58:00,
2014-09-16 06:03:00,59.7,54.2,30.03,South,176,1.0,3.0,82,0.00,,---,0.00,VWS V14.01,2014-09-16 10:03:00,
2014-09-16 06:08:00,59.6,54.1,30.03,SE,144,0.0,3.0,82,0.00,,---,0.00,VWS V14.01,2014-09-16 10:08:00,
2014-09-16 06:13:00,59.6,54.1,30.04,SE,134,1.0,3.0,82,0.00,,---,0.00,VWS V14.01,2014-09-16 10:13:00,
2014-09-16 06:17:00,59.6,54.1,30.03,SE,141,3.0,7.0,82,0.00,,---,0.00,VWS V14.01,2014-09-16 10:17:00,
2014-09-16 06:22:00,59.7,54.2,30.03,South,175,0.0,7.0,82,0.00,,---,0.00,VWS V14.01,2014-09-16 10:22:00,
2014-09-16 06:27:00,59.7,54.2,30.03,South,187,3.0,7.0,82,0.00,,---,0.00,VWS V14.01,2014-09-16 10:27:00,
2014-09-16 06:32:00,59.7,54.5,30.04,SSE,148,0.0,5.0,83,0.00,,---,0.00,VWS V14.01,2014-09-16 10:32:00,
2014-09-16 06:37:00,59.7,54.5,30.04,ESE,120,2.0,5.0,83,0.00,,---,0.00,VWS V14.01,2014-09-16 10:37:00,
2014-09-16 06:42:00,59.7,54.5,30.04,SSE,168,4.0,5.0,83,0.00,,---,0.00,VWS V14.01,2014-09-16 10:42:00,
2014-09-16 06:47:00,59.7,54.5,30.03,SW,214,2.0,5.0,83,0.00,,---,0.00,VWS V14.01,2014-09-16 10:47:00,
2014-09-16 06:52:00,59.7,54.5,30.04,South,175,3.0,5.0,83,0.00,,---,0.00,VWS V14.01,2014-09-16 10:52:00,
2014-09-16 06:57:00,59.7,54.5,30.03,SSW,200,1.0,5.0,83,0.00,,---,0.00,VWS V14.01,2014-09-16 10:57:00,
2014-09-16 07:02:00,59.8,54.6,30.03,South,171,0.0,2.0,83,0.00,,---,0.00,VWS V14.01,2014-09-16 11:02:00,
2014-09-16 07:07:00,59.8,54.3,30.03,South,169,1.0,4.0,82,0.00,,---,0.00,VWS V14.01,2014-09-16 11:07:00,
2014-09-16 07:12:00,59.8,54.3,30.03,SSE,163,1.0,4.0,82,0.00,,---,0.00,VWS V14.01,2014-09-16 11:12:00,
2014-09-16 07:17:00,59.9,54.7,30.03,SW,215,1.0,4.0,83,0.00,,---,0.00,VWS V14.01,2014-09-16 11:17:00,
2014-09-16 07:22:00,60.1,54.9,30.03,South,173,1.0,4.0,83,0.00,,---,0.00,VWS V14.01,2014-09-16 11:22:00,
2014-09-16 07:27:00,60.3,54.8,30.03,SW,222,3.0,4.0,82,0.00,,---,0.00,VWS V14.01,2014-09-16 11:27:00,
2014-09-16 07:32:00,60.4,54.5,30.03,SW,220,4.0,4.0,81,0.00,,---,0.00,VWS V14.01,2014-09-16 11:32:00,
2014-09-16 07:37:00,60.6,54.8,30.03,SSW,200,4.0,5.0,81,0.00,,---,0.00,VWS V14.01,2014-09-16 11:37:00,
2014-09-16 07:42:00,60.8,54.9,30.03,SSE,158,2.0,5.0,81,0.00,,---,0.00,VWS V14.01,2014-09-16 11:42:00,
2014-09-16 07:47:00,61.0,55.1,30.03,ESE,121,3.0,6.0,81,0.00,,---,0.00,VWS V14.01,2014-09-16 11:47:00,
2014-09-16 07:52:00,61.2,55.3,30.03,ESE,120,1.0,6.0,81,0.00,,---,0.00,VWS V14.01,2014-09-16 11:52:00,
2014-09-16 07:57:00,61.4,55.2,30.03,SW,217,1.0,6.0,80,0.00,,---,0.00,VWS V14.01,2014-09-16 11:57:00,
2014-09-16 08:02:00,61.7,55.5,30.03,SSE,166,2.0,6.0,80,0.00,,---,0.00,VWS V14.01,2014-09-16 12:02:00,
2014-09-16 08:07:00,61.9,55.7,30.03,South,188,1.0,6.0,80,0.00,,---,0.00,VWS V14.01,2014-09-16 12:07:00,
2014-09-16 08:11:00,62.2,55.3,30.03,SE,141,2.0,7.0,78,0.00,,---,0.00,VWS V14.01,2014-09-16 12:11:00,
2014-09-16 08:16:00,62.5,55.6,30.03,SW,219,2.0,7.0,78,0.00,,---,0.00,VWS V14.01,2014-09-16 12:16:00,
2014-09-16 08:21:00,62.7,55.8,30.03,SSW,202,1.0,7.0,78,0.00,,---,0.00,VWS V14.01,2014-09-16 12:21:00,
2014-09-16 08:26:00,62.8,55.8,30.02,South,191,3.0,7.0,78,0.00,,---,0.00,VWS V14.01,2014-09-16 12:26:00,
2014-09-16 08:31:00,63.0,56.0,30.02,ESE,122,2.0,6.0,78,0.00,,---,0.00,VWS V14.01,2014-09-16 12:31:00,
2014-09-16 08:36:00,63.1,55.8,30.02,SSW,192,2.0,6.0,77,0.00,,---,0.00,VWS V14.01,2014-09-16 12:36:00,
2014-09-16 08:41:00,63.5,56.2,30.02,ESE,119,1.0,6.0,77,0.00,,---,0.00,VWS V14.01,2014-09-16 12:41:00,
2014-09-16 08:46:00,64.1,56.4,30.01,SE,144,4.0,6.0,76,0.00,,---,0.00,VWS V14.01,2014-09-16 12:46:00,
2014-09-16 08:51:00,64.6,56.5,30.01,SSE,159,4.0,7.0,75,0.00,,---,0.00,VWS V14.01,2014-09-16 12:51:00,
2014-09-16 08:56:00,64.7,56.2,30.02,SSE,163,3.0,7.0,74,0.00,,---,0.00,VWS V14.01,2014-09-16 12:56:00,
2014-09-16 09:01:00,64.7,55.9,30.02,ESE,119,3.0,6.0,73,0.00,,---,0.00,VWS V14.01,2014-09-16 13:01:00,
2014-09-16 09:06:00,65.0,56.9,30.02,SE,130,1.0,7.0,75,0.00,,---,0.00,VWS V14.01,2014-09-16 13:06:00,
2014-09-16 09:11:00,64.8,56.0,30.01,SE,145,2.0,7.0,73,0.00,,---,0.00,VWS V14.01,2014-09-16 13:11:00,
2014-09-16 09:16:00,64.7,56.2,30.02,South,184,4.0,8.0,74,0.00,,---,0.00,VWS V14.01,2014-09-16 13:16:00,
2014-09-16 09:21:00,64.8,56.0,30.01,ESE,105,2.0,8.0,73,0.00,,---,0.00,VWS V14.01,2014-09-16 13:21:00,
2014-09-16 09:26:00,65.4,56.9,30.01,SSE,157,2.0,8.0,74,0.00,,---,0.00,VWS V14.01,2014-09-16 13:26:00,
2014-09-16 09:31:00,66.0,56.7,30.00,SW,217,1.0,5.0,72,0.00,,---,0.00,VWS V14.01,2014-09-16 13:31:00,
2014-09-16 09:36:00,66.4,56.7,30.00,SSE,148,6.0,8.0,71,0.00,,---,0.00,VWS V14.01,2014-09-16 13:36:00,
2014-09-16 09:41:00,66.1,56.8,30.00,South,188,7.0,8.0,72,0.00,,---,0.00,VWS V14.01,2014-09-16 13:41:00,
2014-09-16 09:46:00,66.5,56.8,30.00,SSW,199,5.0,9.0,71,0.00,,---,0.00,VWS V14.01,2014-09-16 13:46:00,
2014-09-16 09:51:00,66.7,57.0,30.00,ESE,122,7.0,9.0,71,0.00,,---,0.00,VWS V14.01,2014-09-16 13:51:00,
2014-09-16 09:56:00,65.9,56.2,30.00,South,183,3.0,9.0,71,0.00,,---,0.00,VWS V14.01,2014-09-16 13:56:00,
2014-09-16 10:01:00,65.1,56.2,30.01,SSW,209,4.0,4.0,73,0.00,,---,0.00,VWS V14.01,2014-09-16 14:01:00,
2014-09-16 10:06:00,64.6,55.8,30.01,SSE,161,3.0,6.0,73,0.00,,---,0.00,VWS V14.01,2014-09-16 14:06:00,
2014-09-16 10:11:00,64.5,56.0,30.01,SSW,198,4.0,6.0,74,0.00,,---,0.00,VWS V14.01,2014-09-16 14:11:00,
2014-09-16 10:16:00,64.3,55.8,30.01,WSW,237,2.0,6.0,74,0.00,,---,0.00,VWS V14.01,2014-09-16 14:16:00,
2014-09-16 10:21:00,64.6,56.5,30.02,South,182,3.0,6.0,75,0.00,,---,0.00,VWS V14.01,2014-09-16 14:21:00,
2014-09-16 10:26:00,64.8,56.0,30.01,ESE,114,2.0,6.0,73,0.00,,---,0.00,VWS V14.01,2014-09-16 14:26:00,
2014-09-16 10:31:00,65.6,57.5,30.01,SSE,151,1.0,4.0,75,0.00,,---,0.00,VWS V14.01,2014-09-16 14:31:00,
2014-09-16 10:36:00,66.4,57.1,30.01,WSW,237,3.0,7.0,72,0.00,,---,0.00,VWS V14.01,2014-09-16 14:36:00,
2014-09-16 10:41:00,65.7,56.4,30.00,SSW,206,5.0,9.0,72,0.00,,---,0.00,VWS V14.01,2014-09-16 14:41:00,
2014-09-16 10:46:00,65.0,56.5,30.00,SSE,148,4.0,9.0,74,0.00,,---,0.00,VWS V14.01,2014-09-16 14:46:00,
2014-09-16 10:51:00,64.7,56.6,30.00,SSW,205,5.0,9.0,75,0.00,,---,0.00,VWS V14.01,2014-09-16 14:51:00,
2014-09-16 10:56:00,64.7,57.3,29.99,SSE,148,6.0,9.0,77,0.00,,---,0.00,VWS V14.01,2014-09-16 14:56:00,
2014-09-16 11:01:00,65.6,57.5,29.99,South,181,6.0,7.0,75,0.00,,---,0.00,VWS V14.01,2014-09-16 15:01:00,
2014-09-16 11:06:00,66.6,56.9,29.99,ESE,123,4.0,7.0,71,0.00,,---,0.00,VWS V14.01,2014-09-16 15:06:00,
2014-09-16 11:07:00,66.7,57.0,29.99,SSE,160,7.0,7.0,71,0.00,,---,0.00,VWS V14.01,2014-09-16 15:07:00,
2014-09-16 11:12:00,67.1,57.4,29.99,SW,223,4.0,7.0,71,0.00,,---,0.00,VWS V14.01,2014-09-16 15:12:00,
2014-09-16 11:17:00,66.8,56.7,29.99,SE,141,5.0,8.0,70,0.00,,---,0.00,VWS V14.01,2014-09-16 15:17:00,
2014-09-16 11:22:00,66.4,55.9,29.99,SSE,149,2.0,9.0,69,0.00,,---,0.00,VWS V14.01,2014-09-16 15:22:00,
2014-09-16 11:27:00,66.7,57.0,29.99,South,184,3.0,9.0,71,0.00,,---,0.00,VWS V14.01,2014-09-16 15:27:00,
2014-09-16 11:32:00,67.3,56.4,29.99,SSE,151,4.0,7.0,68,0.00,,---,0.00,VWS V14.01,2014-09-16 15:32:00,
2014-09-16 11:37:00,67.2,56.3,29.99,ESE,119,2.0,9.0,68,0.00,,---,0.00,VWS V14.01,2014-09-16 15:37:00,
2014-09-16 11:42:00,67.0,55.3,29.99,South,180,6.0,9.0,66,0.00,,---,0.00,VWS V14.01,2014-09-16 15:42:00,
2014-09-16 11:47:00,66.8,55.5,29.99,WSW,243,4.0,9.0,67,0.00,,---,0.00,VWS V14.01,2014-09-16 15:47:00,
2014-09-16 11:52:00,66.9,56.4,29.99,SSW,200,5.0,9.0,69,0.00,,---,0.00,VWS V14.01,2014-09-16 15:52:00,
2014-09-16 11:57:00,66.8,57.5,29.98,SSW,205,4.0,9.0,72,0.00,,---,0.00,VWS V14.01,2014-09-16 15:57:00,
2014-09-16 12:02:00,67.0,57.7,29.98,WSW,237,5.0,6.0,72,0.00,,---,0.00,VWS V14.01,2014-09-16 16:02:00,
2014-09-16 12:07:00,67.7,58.0,29.98,SSW,196,4.0,9.0,71,0.00,,---,0.00,VWS V14.01,2014-09-16 16:07:00,
2014-09-16 12:11:00,67.7,58.0,29.98,SSW,195,5.0,9.0,71,0.00,,---,0.00,VWS V14.01,2014-09-16 16:11:00,
2014-09-16 12:16:00,67.5,57.8,29.98,SW,225,3.0,9.0,71,0.00,,---,0.00,VWS V14.01,2014-09-16 16:16:00,
2014-09-16 12:21:00,66.7,57.8,29.98,SSW,211,3.0,9.0,73,0.00,,---,0.00,VWS V14.01,2014-09-16 16:21:00,
2014-09-16 12:26:00,66.9,57.2,29.98,SSW,213,7.0,9.0,71,0.00,,---,0.00,VWS V14.01,2014-09-16 16:26:00,
2014-09-16 12:31:00,67.7,57.6,29.98,SE,145,2.0,7.0,70,0.00,,---,0.00,VWS V14.01,2014-09-16 16:31:00,
2014-09-16 12:36:00,68.2,56.4,29.98,SW,219,2.0,7.0,66,0.00,,---,0.00,VWS V14.01,2014-09-16 16:36:00,
2014-09-16 12:41:00,68.3,56.5,29.98,SSW,192,1.0,7.0,66,0.00,,---,0.00,VWS V14.01,2014-09-16 16:41:00,
2014-09-16 12:46:00,67.9,55.3,29.98,South,183,4.0,7.0,64,0.00,,---,0.00,VWS V14.01,2014-09-16 16:46:00,
2014-09-16 12:51:00,67.1,55.4,29.98,SE,143,3.0,7.0,66,0.00,,---,0.00,VWS V14.01,2014-09-16 16:51:00,
2014-09-16 12:56:00,66.8,55.1,29.98,SW,214,7.0,7.0,66,0.00,,---,0.00,VWS V14.01,2014-09-16 16:56:00,
2014-09-16 13:01:00,67.1,55.0,29.98,South,188,4.0,9.0,65,0.00,,---,0.00,VWS V14.01,2014-09-16 17:01:00,
2014-09-16 13:06:00,67.6,55.8,29.98,SW,221,2.0,9.0,66,0.00,,---,0.00,VWS V14.01,2014-09-16 17:06:00,
2014-09-16 13:11:00,68.0,55.4,29.98,South,188,9.0,9.0,64,0.00,,---,0.00,VWS V14.01,2014-09-16 17:11:00,
2014-09-16 13:14:00,67.6,55.4,29.98,WSW,254,6.0,10.0,65,0.00,,---,0.00,VWS V14.01,2014-09-16 17:14:00,
2014-09-16 13:19:00,66.9,55.2,29.98,WSW,240,9.0,10.0,66,0.00,,---,0.00,VWS V14.01,2014-09-16 17:19:00,
2014-09-16 13:24:00,67.0,55.3,29.98,WSW,240,5.0,10.0,66,0.00,,---,0.00,VWS V14.01,2014-09-16 17:24:00,
2014-09-16 13:29:00,67.5,55.3,29.97,SSW,207,5.0,10.0,65,0.00,,---,0.00,VWS V14.01,2014-09-16 17:29:00,
2014-09-16 13:34:00,67.1,55.4,29.97,SW,214,6.0,7.0,66,0.00,,---,0.00,VWS V14.01,2014-09-16 17:34:00,
2014-09-16 13:39:00,67.7,55.5,29.97,SSE,157,3.0,9.0,65,0.00,,---,0.00,VWS V14.01,2014-09-16 17:39:00,
2014-09-16 13:44:00,68.2,55.1,29.96,SSW,195,8.0,9.0,63,0.00,,---,0.00,VWS V14.01,2014-09-16 17:44:00,
2014-09-16 13:49:00,68.1,55.9,29.96,SSW,198,7.0,10.0,65,0.00,,---,0.00,VWS V14.01,2014-09-16 17:49:00,
2014-09-16 13:54:00,68.0,55.0,29.96,West,263,4.0,12.0,63,0.00,,---,0.00,VWS V14.01,2014-09-16 17:54:00,
2014-09-16 13:59:00,67.8,55.2,29.96,SW,217,3.0,12.0,64,0.00,,---,0.00,VWS V14.01,2014-09-16 17:59:00,
2014-09-16 14:04:00,67.7,56.0,29.96,SSE,148,6.0,7.0,66,0.00,,---,0.00,VWS V14.01,2014-09-16 18:04:00,
2014-09-16 14:09:00,67.8,55.6,29.95,South,182,4.0,11.0,65,0.00,,---,0.00,VWS V14.01,2014-09-16 18:09:00,
2014-09-16 14:14:00,68.1,56.7,29.95,SSW,213,3.0,11.0,67,0.00,,---,0.00,VWS V14.01,2014-09-16 18:14:00,
2014-09-16 14:19:00,68.4,57.0,29.95,WSW,238,3.0,11.0,67,0.00,,---,0.00,VWS V14.01,2014-09-16 18:19:00,
2014-09-16 14:24:00,67.7,56.4,29.95,SW,218,8.0,11.0,67,0.00,,---,0.00,VWS V14.01,2014-09-16 18:24:00,
2014-09-16 14:29:00,67.6,56.3,29.95,SSW,203,3.0,11.0,67,0.00,,---,0.00,VWS V14.01,2014-09-16 18:29:00,
2014-09-16 14:34:00,67.4,55.7,29.95,SSE,153,5.0,11.0,66,0.00,,---,0.00,VWS V14.01,2014-09-16 18:34:00,
2014-09-16 14:39:00,67.2,56.3,29.95,SW,214,2.0,11.0,68,0.00,,---,0.00,VWS V14.01,2014-09-16 18:39:00,
2014-09-16 14:44:00,67.4,56.1,29.95,SSW,207,4.0,11.0,67,0.00,,---,0.00,VWS V14.01,2014-09-16 18:44:00,
2014-09-16 14:48:00,67.7,55.5,29.95,SW,214,7.0,11.0,65,0.00,,---,0.00,VWS V14.01,2014-09-16 18:48:00,
2014-09-16 14:53:00,67.3,55.6,29.94,WSW,240,6.0,11.0,66,0.00,,---,0.00,VWS V14.01,2014-09-16 18:53:00,
2014-09-16 14:58:00,66.9,55.6,29.94,SSW,200,6.0,11.0,67,0.00,,---,0.00,VWS V14.01,2014-09-16 18:58:00,
2014-09-16 15:03:00,67.1,56.6,29.94,WSW,249,5.0,11.0,69,0.00,,---,0.00,VWS V14.01,2014-09-16 19:03:00,
2014-09-16 15:08:00,67.8,56.9,29.94,SW,215,3.0,11.0,68,0.00,,---,0.00,VWS V14.01,2014-09-16 19:08:00,
2014-09-16 15:13:00,67.8,56.0,29.94,SW,214,8.0,11.0,66,0.00,,---,0.00,VWS V14.01,2014-09-16 19:13:00,
2014-09-16 15:18:00,67.7,56.8,29.94,SW,234,4.0,11.0,68,0.00,,---,0.00,VWS V14.01,2014-09-16 19:18:00,
2014-09-16 15:23:00,68.0,56.2,29.94,South,171,5.0,11.0,66,0.00,,---,0.00,VWS V14.01,2014-09-16 19:23:00,
2014-09-16 15:28:00,67.8,56.9,29.94,East,88,3.0,11.0,68,0.00,,---,0.00,VWS V14.01,2014-09-16 19:28:00,
2014-09-16 15:33:00,68.1,55.9,29.94,SSE,160,5.0,11.0,65,0.00,,---,0.00,VWS V14.01,2014-09-16 19:33:00,
2014-09-16 15:38:00,67.8,56.0,29.94,SSW,192,7.0,11.0,66,0.00,,---,0.00,VWS V14.01,2014-09-16 19:38:00,
2014-09-16 15:43:00,67.7,56.0,29.94,SSE,163,5.0,11.0,66,0.00,,---,0.00,VWS V14.01,2014-09-16 19:43:00,
2014-09-16 15:48:00,67.9,56.5,29.94,SSE,157,5.0,11.0,67,0.00,,---,0.00,VWS V14.01,2014-09-16 19:48:00,
2014-09-16 15:53:00,67.8,56.0,29.94,South,173,5.0,11.0,66,0.00,,---,0.00,VWS V14.01,2014-09-16 19:53:00,
2014-09-16 15:58:00,67.6,56.3,29.94,ESE,111,5.0,11.0,67,0.00,,---,0.00,VWS V14.01,2014-09-16 19:58:00,
2014-09-16 16:03:00,67.9,56.1,29.94,SW,222,3.0,7.0,66,0.00,,---,0.00,VWS V14.01,2014-09-16 20:03:00,
2014-09-16 16:08:00,67.7,56.4,29.94,South,183,4.0,9.0,67,0.00,,---,0.00,VWS V14.01,2014-09-16 20:08:00,
2014-09-16 16:11:00,67.6,56.3,29.94,SSW,198,3.0,9.0,67,0.00,,---,0.00,VWS V14.01,2014-09-16 20:11:00,
2014-09-16 16:16:00,67.6,56.3,29.94,WSW,246,6.0,9.0,67,0.00,,---,0.00,VWS V14.01,2014-09-16 20:16:00,
2014-09-16 16:21:00,67.8,56.9,29.94,SSW,192,3.0,9.0,68,0.00,,---,0.00,VWS V14.01,2014-09-16 20:21:00,
2014-09-16 16:26:00,67.8,56.5,29.94,South,179,4.0,9.0,67,0.00,,---,0.00,VWS V14.01,2014-09-16 20:26:00,
2014-09-16 16:31:00,67.6,57.1,29.94,SW,217,6.0,6.0,69,0.00,,---,0.00,VWS V14.01,2014-09-16 20:31:00,
2014-09-16 16:36:00,67.3,56.8,29.94,SW,230,3.0,7.0,69,0.00,,---,0.00,VWS V14.01,2014-09-16 20:36:00,
2014-09-16 16:41:00,67.3,56.8,29.94,SSW,211,3.0,7.0,69,0.00,,---,0.00,VWS V14.01,2014-09-16 20:41:00,
2014-09-16 16:46:00,67.1,57.4,29.94,SSW,207,6.0,7.0,71,0.00,,---,0.00,VWS V14.01,2014-09-16 20:46:00,
2014-09-16 16:51:00,67.1,57.4,29.94,SSE,159,5.0,7.0,71,0.00,,---,0.00,VWS V14.01,2014-09-16 20:51:00,
2014-09-16 16:56:00,67.1,57.4,29.94,SSW,202,5.0,7.0,71,0.00,,---,0.00,VWS V14.01,2014-09-16 20:56:00,
2014-09-16 17:01:00,66.7,57.0,29.94,South,173,3.0,5.0,71,0.00,,---,0.00,VWS V14.01,2014-09-16 21:01:00,
2014-09-16 17:06:00,66.5,57.6,29.94,South,186,5.0,6.0,73,0.00,,---,0.00,VWS V14.01,2014-09-16 21:06:00,
2014-09-16 17:11:00,66.4,57.1,29.94,South,179,5.0,7.0,72,0.00,,---,0.00,VWS V14.01,2014-09-16 21:11:00,
2014-09-16 17:16:00,66.3,57.0,29.94,SSW,202,2.0,7.0,72,0.00,,---,0.00,VWS V14.01,2014-09-16 21:16:00,
2014-09-16 17:21:00,66.4,57.5,29.95,South,187,5.0,7.0,73,0.00,,---,0.00,VWS V14.01,2014-09-16 21:21:00,
2014-09-16 17:26:00,66.3,57.4,29.94,East,101,1.0,7.0,73,0.00,,---,0.00,VWS V14.01,2014-09-16 21:26:00,
2014-09-16 17:31:00,66.3,57.4,29.95,South,180,3.0,4.0,73,0.00,,---,0.00,VWS V14.01,2014-09-16 21:31:00,
2014-09-16 17:36:00,66.2,57.7,29.94,SW,214,5.0,6.0,74,0.00,,---,0.00,VWS V14.01,2014-09-16 21:36:00,
2014-09-16 17:41:00,65.9,57.8,29.95,SSW,213,6.0,6.0,75,0.00,,---,0.00,VWS V14.01,2014-09-16 21:41:00,
2014-09-16 17:45:00,65.7,57.6,29.95,South,187,2.0,6.0,75,0.00,,---,0.00,VWS V14.01,2014-09-16 21:45:00,
2014-09-16 17:50:00,65.6,57.8,29.95,South,169,5.0,6.0,76,0.00,,---,0.00,VWS V14.01,2014-09-16 21:50:00,
2014-09-16 17:55:00,65.4,57.7,29.95,South,184,6.0,6.0,76,0.00,,---,0.00,VWS V14.01,2014-09-16 21:55:00,
2014-09-16 18:00:00,65.1,57.4,29.95,SSE,148,1.0,2.0,76,0.00,,---,0.00,VWS V14.01,2014-09-16 22:00:00,
2014-09-16 18:05:00,64.9,57.5,29.95,WSW,252,3.0,5.0,77,0.00,,---,0.00,VWS V14.01,2014-09-16 22:05:00,
2014-09-16 18:10:00,64.5,57.1,29.95,SSW,210,2.0,5.0,77,0.00,,---,0.00,VWS V14.01,2014-09-16 22:10:00,
2014-09-16 18:15:00,64.2,57.2,29.95,SSW,213,4.0,6.0,78,0.00,,---,0.00,VWS V14.01,2014-09-16 22:15:00,
2014-09-16 18:20:00,63.9,56.9,29.95,South,171,1.0,6.0,78,0.00,,---,0.00,VWS V14.01,2014-09-16 22:20:00,
2014-09-16 18:25:00,63.7,57.1,29.95,SW,225,3.0,6.0,79,0.00,,---,0.00,VWS V14.01,2014-09-16 22:25:00,
2014-09-16 18:30:00,63.3,57.0,29.95,SW,219,2.0,6.0,80,0.00,,---,0.00,VWS V14.01,2014-09-16 22:30:00,
2014-09-16 18:35:00,62.9,56.6,29.95,SSW,205,3.0,4.0,80,0.00,,---,0.00,VWS V14.01,2014-09-16 22:35:00,
2014-09-16 18:40:00,62.5,56.6,29.95,SSW,192,2.0,4.0,81,0.00,,---,0.00,VWS V14.01,2014-09-16 22:40:00,
2014-09-16 18:45:00,61.9,56.0,29.95,SSW,207,3.0,4.0,81,0.00,,---,0.00,VWS V14.01,2014-09-16 22:45:00,
2014-09-16 18:50:00,61.5,56.0,29.95,SSE,167,2.0,4.0,82,0.00,,---,0.00,VWS V14.01,2014-09-16 22:50:00,
2014-09-16 18:55:00,61.3,55.8,29.95,SW,218,2.0,4.0,82,0.00,,---,0.00,VWS V14.01,2014-09-16 22:55:00,
2014-09-16 19:00:00,61.0,55.8,29.95,SW,214,1.0,4.0,83,0.00,,---,0.00,VWS V14.01,2014-09-16 23:00:00,
2014-09-16 19:05:00,60.8,55.6,29.95,SW,214,2.0,2.0,83,0.00,,---,0.00,VWS V14.01,2014-09-16 23:05:00,
2014-09-16 19:10:00,60.7,55.5,29.95,SW,233,2.0,3.0,83,0.00,,---,0.00,VWS V14.01,2014-09-16 23:10:00,
2014-09-16 19:15:00,60.7,55.8,29.95,SW,219,1.0,3.0,84,0.00,,---,0.00,VWS V14.01,2014-09-16 23:15:00,
2014-09-16 19:20:00,60.7,55.8,29.95,SW,219,2.0,3.0,84,0.00,,---,0.00,VWS V14.01,2014-09-16 23:20:00,
2014-09-16 19:25:00,60.8,55.9,29.95,WSW,249,0.0,3.0,84,0.00,,---,0.00,VWS V14.01,2014-09-16 23:25:00,
2014-09-16 19:30:00,60.8,55.9,29.95,West,264,0.0,3.0,84,0.00,,---,0.00,VWS V14.01,2014-09-16 23:30:00,
2014-09-16 19:35:00,60.8,55.9,29.96,WSW,240,2.0,3.0,84,0.00,,---,0.00,VWS V14.01,2014-09-16 23:35:00,
2014-09-16 19:40:00,60.8,55.9,29.96,WSW,252,0.0,3.0,84,0.00,,---,0.00,VWS V14.01,2014-09-16 23:40:00,
2014-09-16 19:45:00,60.9,56.4,29.96,WSW,245,0.0,3.0,85,0.00,,---,0.00,VWS V14.01,2014-09-16 23:45:00,
2014-09-16 19:50:00,60.8,56.3,29.96,SW,223,1.0,3.0,85,0.00,,---,0.00,VWS V14.01,2014-09-16 23:50:00,
2014-09-16 19:55:00,60.8,56.3,29.96,SW,227,1.0,3.0,85,0.00,,---,0.00,VWS V14.01,2014-09-16 23:55:00,
2014-09-16 20:00:00,60.9,56.4,29.96,West,261,0.0,3.0,85,0.00,,---,0.00,VWS V14.01,2014-09-17 00:00:00,
2014-09-16 20:05:00,61.2,56.7,29.96,WSW,249,0.0,4.0,85,0.00,,---,0.00,VWS V14.01,2014-09-17 00:05:00,
2014-09-16 20:10:00,61.2,56.3,29.97,SW,221,0.0,4.0,84,0.00,,---,0.00,VWS V14.01,2014-09-17 00:10:00,
2014-09-16 20:15:00,61.1,56.6,29.97,SW,227,1.0,4.0,85,0.00,,---,0.00,VWS V14.01,2014-09-17 00:15:00,
2014-09-16 20:20:00,61.0,56.5,29.97,SW,222,3.0,4.0,85,0.00,,---,0.00,VWS V14.01,2014-09-17 00:20:00,
2014-09-16 20:25:00,61.0,56.8,29.97,SW,230,2.0,4.0,86,0.00,,---,0.00,VWS V14.01,2014-09-17 00:25:00,
2014-09-16 20:30:00,61.1,56.6,29.97,SW,215,2.0,4.0,85,0.00,,---,0.00,VWS V14.01,2014-09-17 00:30:00,
2014-09-16 20:35:00,61.2,56.7,29.97,SW,225,2.0,2.0,85,0.00,,---,0.00,VWS V14.01,2014-09-17 00:35:00,
2014-09-16 20:40:00,61.2,56.7,29.97,WSW,244,1.0,2.0,85,0.00,,---,0.00,VWS V14.01,2014-09-17 00:40:00,
2014-09-16 20:45:00,61.3,56.8,29.97,WSW,241,0.0,3.0,85,0.00,,---,0.00,VWS V14.01,2014-09-17 00:45:00,
2014-09-16 20:50:00,61.4,56.5,29.97,WSW,256,0.0,3.0,84,0.00,,---,0.00,VWS V14.01,2014-09-17 00:50:00,
2014-09-16 20:53:00,61.5,57.0,29.97,West,259,0.0,4.0,85,0.00,,---,0.00,VWS V14.01,2014-09-17 00:53:00,
2014-09-16 20:58:00,61.4,56.9,29.97,WSW,249,1.0,4.0,85,0.00,,---,0.00,VWS V14.01,2014-09-17 00:58:00,
2014-09-16 21:03:00,61.4,56.9,29.97,West,269,0.0,2.0,85,0.00,,---,0.00,VWS V14.01,2014-09-17 01:03:00,
2014-09-16 21:08:00,61.3,56.8,29.97,West,259,1.0,2.0,85,0.00,,---,0.00,VWS V14.01,2014-09-17 01:08:00,
2014-09-16 21:13:00,61.3,56.8,29.97,WSW,257,0.0,2.0,85,0.00,,---,0.00,VWS V14.01,2014-09-17 01:13:00,
2014-09-16 21:18:00,61.3,56.8,29.97,West,260,0.0,2.0,85,0.00,,---,0.00,VWS V14.01,2014-09-17 01:18:00,
2014-09-16 21:23:00,61.4,57.2,29.97,West,265,1.0,2.0,86,0.00,,---,0.00,VWS V14.01,2014-09-17 01:23:00,
2014-09-16 21:28:00,61.3,57.1,29.97,West,259,1.0,2.0,86,0.00,,---,0.00,VWS V14.01,2014-09-17 01:28:00,
2014-09-16 21:33:00,61.3,57.1,29.97,WSW,237,0.0,1.0,86,0.00,,---,0.00,VWS V14.01,2014-09-17 01:33:00,
2014-09-16 21:38:00,60.9,56.4,29.97,SW,230,0.0,2.0,85,0.00,,---,0.00,VWS V14.01,2014-09-17 01:38:00,
2014-09-16 21:43:00,60.5,56.6,29.97,SW,218,1.0,2.0,87,0.00,,---,0.00,VWS V14.01,2014-09-17 01:43:00,
2014-09-16 21:48:00,60.6,57.0,29.97,WSW,240,1.0,2.0,88,0.00,,---,0.00,VWS V14.01,2014-09-17 01:48:00,
2014-09-16 21:53:00,60.9,57.0,29.97,WSW,252,1.0,2.0,87,0.00,,---,0.00,VWS V14.01,2014-09-17 01:53:00,
2014-09-16 21:58:00,60.9,57.0,29.97,WSW,246,1.0,2.0,87,0.00,,---,0.00,VWS V14.01,2014-09-17 01:58:00,